Time;durP1;ratioP1;P1;durP2;ratioP2;P2;SDS_P1;SDS_P2;PMS_P1;PMS_P2;Temp;Humidity;BMP_temperature;BMP_pressure;BME280_temperature;BME280_humidity;BME280_pressure;Samples;Min_cycle;Max_cycle;Signal;HPM_P1;HPM_P2
2022/10/12 00:01:26;;;;;;;8.85;2.47;;;10.30;93.40;;;;;;5065610;28;20024;-86
2022/10/12 00:03:52;;;;;;;12.80;2.83;;;10.20;93.40;;;;;;5065365;28;20048;-84
2022/10/12 00:06:20;;;;;;;12.63;2.78;;;10.20;93.40;;;;;;5069446;28;20059;-87
2022/10/12 00:08:47;;;;;;;9.15;2.80;;;10.20;93.40;;;;;;5062666;28;20040;-85
2022/10/12 00:11:16;;;;;;;11.88;2.42;;;10.20;93.40;;;;;;5064185;28;20033;-86
2022/10/12 00:13:41;;;;;;;12.95;2.70;;;10.30;93.30;;;;;;5061529;28;20060;-84
2022/10/12 00:16:09;;;;;;;7.57;2.03;;;10.30;93.30;;;;;;5076979;28;20334;-84
2022/10/12 00:18:35;;;;;;;10.45;2.38;;;10.30;93.30;;;;;;5080874;28;20028;-87
2022/10/12 00:21:04;;;;;;;9.77;2.72;;;10.30;93.40;;;;;;5079026;28;20052;-86
2022/10/12 00:23:31;;;;;;;11.18;2.80;;;10.30;93.50;;;;;;5063408;28;20472;-86
2022/10/12 00:26:01;;;;;;;13.35;2.58;;;10.20;93.50;;;;;;5068714;28;20391;-85
2022/10/12 00:28:27;;;;;;;12.70;2.63;;;10.30;93.50;;;;;;5074413;28;20035;-86
2022/10/12 00:30:52;;;;;;;12.02;2.53;;;10.20;93.40;;;;;;5069053;28;20119;-83
2022/10/12 00:33:18;;;;;;;12.93;2.42;;;10.20;93.40;;;;;;5075137;28;20044;-84
2022/10/12 00:35:43;;;;;;;9.23;2.70;;;10.20;93.40;;;;;;5071454;28;20067;-84
2022/10/12 00:38:09;;;;;;;11.63;2.88;;;10.20;93.40;;;;;;5080352;28;20028;-85
2022/10/12 00:40:34;;;;;;;9.82;2.67;;;10.20;93.50;;;;;;5072037;28;20083;-86
2022/10/12 00:43:00;;;;;;;10.82;2.35;;;10.10;93.40;;;;;;5071833;28;20028;-79
2022/10/12 00:45:26;;;;;;;10.43;2.90;;;10.10;93.50;;;;;;5071079;28;20092;-85
2022/10/12 00:47:56;;;;;;;10.98;2.75;;;10.10;93.50;;;;;;5075321;28;20044;-86
2022/10/12 00:50:25;;;;;;;10.67;2.63;;;10.10;93.50;;;;;;5071445;28;20060;-85
2022/10/12 00:53:08;;;;;;;14.63;2.88;;;10.00;93.60;;;;;;5074351;28;20282;-86
2022/10/12 00:55:39;;;;;;;11.82;2.63;;;9.90;93.50;;;;;;5063360;28;20128;-83
2022/10/12 00:58:07;;;;;;;9.25;2.20;;;9.80;93.60;;;;;;5073815;28;20028;-86
2022/10/12 01:00:34;;;;;;;11.15;2.63;;;9.70;93.70;;;;;;5074186;28;20051;-86
2022/10/12 01:03:00;;;;;;;12.80;2.60;;;9.70;93.90;;;;;;5074587;28;20067;-86
2022/10/12 01:05:26;;;;;;;8.32;2.38;;;9.60;94.00;;;;;;5063536;28;20129;-78
2022/10/12 01:07:51;;;;;;;10.30;3.08;;;9.60;94.10;;;;;;5073249;28;20055;-83
2022/10/12 01:10:17;;;;;;;13.70;2.67;;;9.60;94.20;;;;;;5066146;28;20354;-82
2022/10/12 01:12:45;;;;;;;10.85;2.70;;;9.60;94.40;;;;;;5082494;28;20033;-82
2022/10/12 01:15:12;;;;;;;11.10;3.00;;;9.60;94.40;;;;;;5091990;28;20020;-78
2022/10/12 01:18:12;;;;;;;11.50;2.38;;;9.60;94.40;;;;;;5101802;28;20079;-78
2022/10/12 01:21:01;;;;;;;12.32;2.95;;;9.60;94.30;;;;;;5089159;28;20059;-82
2022/10/12 01:23:56;;;;;;;11.55;2.92;;;9.60;94.20;;;;;;5078524;28;20051;-83
2022/10/12 01:26:43;;;;;;;10.93;2.53;;;9.50;94.20;;;;;;5059514;28;20035;-81
2022/10/12 01:29:47;;;;;;;9.55;2.60;;;9.50;94.00;;;;;;5072549;28;20119;-88
2022/10/12 01:32:27;;;;;;;13.13;2.35;;;9.50;93.70;;;;;;5071678;28;20464;-85
2022/10/12 01:34:59;;;;;;;13.18;2.45;;;9.50;93.50;;;;;;5066419;28;20145;-85
2022/10/12 01:37:53;;;;;;;13.35;2.95;;;9.50;93.20;;;;;;5071184;28;20029;-86
2022/10/12 01:40:40;;;;;;;9.75;2.10;;;9.50;93.10;;;;;;5068980;28;20022;-86
2022/10/12 01:43:07;;;;;;;6.75;2.15;;;9.50;92.90;;;;;;5061025;28;20037;-87
2022/10/12 01:45:33;;;;;;;9.43;2.47;;;9.50;92.60;;;;;;5070334;28;20056;-86
2022/10/12 01:47:59;;;;;;;11.75;2.47;;;9.50;92.60;;;;;;5068290;28;20420;-87
2022/10/12 01:50:35;;;;;;;15.95;2.70;;;9.40;92.50;;;;;;5068807;28;20036;-87
2022/10/12 01:53:30;;;;;;;16.95;2.80;;;9.40;92.50;;;;;;5071746;28;20024;-87
2022/10/12 01:56:10;;;;;;;14.45;3.13;;;9.40;92.60;;;;;;5068777;28;20033;-87
2022/10/12 01:59:03;;;;;;;14.53;2.80;;;9.40;92.60;;;;;;5067685;28;20047;-87
2022/10/12 02:01:50;;;;;;;9.45;2.83;;;9.30;92.60;;;;;;5063881;28;20032;-87
2022/10/12 02:04:35;;;;;;;7.32;2.00;;;9.30;92.60;;;;;;5066960;28;20123;-86
2022/10/12 02:07:11;;;;;;;12.77;2.30;;;9.30;92.60;;;;;;5066505;28;20033;-85
2022/10/12 02:09:38;;;;;;;14.32;2.65;;;9.30;92.60;;;;;;5064289;28;20060;-86
2022/10/12 02:12:17;;;;;;;17.73;2.75;;;9.30;92.60;;;;;;5069434;28;20039;-86
2022/10/12 02:14:47;;;;;;;17.85;2.97;;;9.20;92.60;;;;;;5057905;28;20033;-87
2022/10/12 02:17:15;;;;;;;9.63;1.83;;;9.20;92.60;;;;;;5067504;28;20144;-86
2022/10/12 02:19:47;;;;;;;11.82;2.38;;;9.20;92.50;;;;;;5068496;28;20028;-87
2022/10/12 02:22:15;;;;;;;12.38;2.40;;;9.20;92.40;;;;;;5069444;28;20040;-83
2022/10/12 02:24:44;;;;;;;11.43;2.70;;;9.20;92.40;;;;;;5079978;28;20074;-86
2022/10/12 02:27:12;;;;;;;11.50;2.17;;;9.10;92.40;;;;;;5066242;28;20077;-87
2022/10/12 02:29:40;;;;;;;12.65;2.40;;;9.20;92.40;;;;;;5065592;28;20103;-86
2022/10/12 02:32:22;;;;;;;14.07;2.25;;;9.10;92.10;;;;;;5062989;28;20115;-87
2022/10/12 02:34:58;;;;;;;10.82;2.13;;;9.10;92.20;;;;;;5067874;28;20442;-87
2022/10/12 02:37:50;;;;;;;10.45;2.20;;;9.10;92.30;;;;;;5064028;28;20021;-87
2022/10/12 02:40:35;;;;;;;6.13;2.33;;;9.10;92.20;;;;;;5061423;28;20020;-84
2022/10/12 02:43:16;;;;;;;14.93;2.53;;;9.00;92.10;;;;;;5060901;28;20135;-84
2022/10/12 02:45:43;;;;;;;;;;;9.00;92.10;;;;;;5065062;28;20069;-86
2022/10/12 02:48:13;;;;;;;10.40;2.00;;;8.90;92.30;;;;;;5070357;28;19935;-87
2022/10/12 02:50:39;;;;;;;12.32;3.00;;;8.80;92.40;;;;;;5059124;28;20086;-86
2022/10/12 02:53:05;;;;;;;11.70;2.58;;;8.70;92.50;;;;;;5065591;28;20033;-87
2022/10/12 02:55:31;;;;;;;12.10;2.42;;;8.60;92.70;;;;;;5064675;28;20036;-81
2022/10/12 02:57:56;;;;;;;9.27;2.50;;;8.50;92.80;;;;;;5069223;28;20025;-87
2022/10/12 03:00:22;;;;;;;10.95;2.45;;;8.40;92.90;;;;;;5067913;28;20425;-86
2022/10/12 03:02:47;;;;;;;11.35;2.38;;;8.30;93.10;;;;;;5069693;28;20064;-85
2022/10/12 03:05:13;;;;;;;12.43;2.65;;;8.20;93.10;;;;;;5070486;28;20048;-82
2022/10/12 03:07:38;;;;;;;8.35;2.45;;;8.10;93.30;;;;;;5072878;28;20059;-85
2022/10/12 03:10:04;;;;;;;7.75;2.30;;;8.00;93.40;;;;;;5069350;28;20342;-82
2022/10/12 03:12:29;;;;;;;10.52;2.35;;;8.00;93.50;;;;;;5063033;28;20090;-86
2022/10/12 03:14:55;;;;;;;14.82;3.00;;;7.80;93.70;;;;;;5072036;28;20442;-86
2022/10/12 03:17:20;;;;;;;10.27;2.38;;;7.70;93.80;;;;;;5081122;28;20079;-85
2022/10/12 03:19:46;;;;;;;13.27;2.47;;;7.60;93.90;;;;;;5067616;28;20113;-86
2022/10/12 03:22:11;;;;;;;12.27;2.20;;;7.50;94.00;;;;;;5068473;28;20029;-84
2022/10/12 03:24:37;;;;;;;12.75;2.20;;;7.40;94.20;;;;;;5065028;28;20065;-86
2022/10/12 03:27:02;;;;;;;9.10;1.77;;;7.30;94.40;;;;;;5070520;28;20045;-84
2022/10/12 03:29:28;;;;;;;15.88;2.50;;;7.20;94.40;;;;;;5069920;28;20033;-85
2022/10/12 03:31:53;;;;;;;9.65;2.03;;;7.10;94.60;;;;;;5061066;28;20131;-86
2022/10/12 03:34:18;;;;;;;7.93;1.90;;;7.10;95.00;;;;;;5078571;28;20796;-85
2022/10/12 03:36:44;;;;;;;12.05;3.15;;;7.10;95.00;;;;;;5071839;28;20057;-86
2022/10/12 03:39:10;;;;;;;10.52;1.98;;;7.00;95.10;;;;;;5069653;28;20430;-86
2022/10/12 03:41:36;;;;;;;9.98;1.88;;;6.90;95.20;;;;;;5082799;28;20301;-86
2022/10/12 03:44:02;;;;;;;10.43;2.38;;;6.80;95.30;;;;;;5071986;28;20036;-84
2022/10/12 03:46:27;;;;;;;11.38;2.47;;;6.70;95.40;;;;;;5075982;28;20024;-83
2022/10/12 03:48:53;;;;;;;17.42;2.40;;;6.60;95.30;;;;;;5084356;28;20059;-86
2022/10/12 03:51:18;;;;;;;13.68;2.80;;;6.60;95.60;;;;;;5096285;28;20083;-84
2022/10/12 03:53:44;;;;;;;9.68;2.40;;;6.60;95.70;;;;;;5088834;28;20040;-84
2022/10/12 03:56:09;;;;;;;14.23;2.30;;;6.50;95.80;;;;;;5076700;28;20036;-86
2022/10/12 03:58:36;;;;;;;8.20;2.63;;;6.50;95.90;;;;;;5084378;28;20035;-80
2022/10/12 04:01:01;;;;;;;12.82;2.63;;;6.50;96.10;;;;;;5094066;28;20294;-84
2022/10/12 04:03:26;;;;;;;15.10;2.45;;;6.40;96.20;;;;;;5095819;28;20035;-83
2022/10/12 04:05:56;;;;;;;14.48;2.50;;;6.30;96.20;;;;;;5091539;28;20087;-85
2022/10/12 04:08:23;;;;;;;13.20;2.30;;;6.30;96.30;;;;;;5069957;28;20048;-81
2022/10/12 04:10:52;;;;;;;9.82;2.20;;;6.20;96.30;;;;;;5053543;28;20256;-86
2022/10/12 04:13:18;;;;;;;15.90;2.45;;;6.20;96.40;;;;;;5070380;28;20048;-86
2022/10/12 04:15:44;;;;;;;10.27;2.30;;;6.10;96.40;;;;;;5075909;28;20025;-86
2022/10/12 04:18:10;;;;;;;13.02;3.40;;;6.10;96.50;;;;;;5073578;28;20110;-86
2022/10/12 04:20:35;;;;;;;13.48;3.00;;;6.00;96.50;;;;;;5074025;28;20053;-84
2022/10/12 04:23:00;;;;;;;7.55;2.08;;;6.00;96.60;;;;;;5075490;28;20035;-85
2022/10/12 04:25:26;;;;;;;15.27;3.05;;;6.00;96.60;;;;;;5069320;28;20039;-84
2022/10/12 04:27:52;;;;;;;9.57;2.60;;;5.90;96.60;;;;;;5073122;28;20044;-85
2022/10/12 04:30:17;;;;;;;10.35;3.08;;;5.90;96.70;;;;;;5068791;28;20036;-69
2022/10/12 04:32:43;;;;;;;13.02;3.35;;;5.90;96.70;;;;;;5069967;28;20037;-68
2022/10/12 04:35:08;;;;;;;11.02;3.10;;;5.80;96.70;;;;;;5065551;28;22083;-68
2022/10/12 04:37:34;;;;;;;16.20;2.70;;;5.80;96.90;;;;;;5064772;28;20449;-68
2022/10/12 04:39:59;;;;;;;16.85;2.95;;;5.80;96.90;;;;;;5057703;28;20028;-67
2022/10/12 04:42:25;;;;;;;15.45;3.17;;;5.70;96.90;;;;;;5055390;28;20033;-68
2022/10/12 04:44:50;;;;;;;9.50;2.85;;;5.70;97.00;;;;;;5063161;28;20764;-68
2022/10/12 04:47:16;;;;;;;13.50;2.70;;;5.70;97.00;;;;;;5064342;28;20112;-68
2022/10/12 04:49:41;;;;;;;8.38;2.70;;;5.60;97.00;;;;;;5067920;28;20028;-67
2022/10/12 04:52:07;;;;;;;9.60;3.10;;;5.60;97.00;;;;;;5055797;28;20503;-67
2022/10/12 04:54:32;;;;;;;15.63;3.17;;;5.60;97.00;;;;;;5064898;28;20052;-68
2022/10/12 04:56:58;;;;;;;15.15;3.00;;;5.50;97.00;;;;;;5066594;28;20029;-68
2022/10/12 04:59:23;;;;;;;9.52;3.08;;;5.50;97.10;;;;;;5066297;28;20039;-68
2022/10/12 05:01:49;;;;;;;9.13;2.83;;;5.50;97.10;;;;;;5064626;28;20048;-67
2022/10/12 05:04:15;;;;;;;12.05;3.17;;;5.40;97.20;;;;;;5055924;28;20041;-68
2022/10/12 05:06:40;;;;;;;8.85;3.03;;;5.40;97.20;;;;;;5065040;28;20048;-67
2022/10/12 05:09:06;;;;;;;16.73;3.90;;;5.30;97.10;;;;;;5077948;28;20097;-67
2022/10/12 05:11:31;;;;;;;11.00;2.70;;;5.30;97.10;;;;;;5058128;28;20036;-68
2022/10/12 05:13:57;;;;;;;11.18;2.92;;;5.30;97.30;;;;;;5059404;28;20111;-67
2022/10/12 05:16:23;;;;;;;14.55;3.63;;;5.30;97.20;;;;;;5060509;28;20449;-69
2022/10/12 05:18:48;;;;;;;13.00;3.78;;;5.30;97.30;;;;;;5058099;28;20033;-68
2022/10/12 05:21:14;;;;;;;15.27;3.70;;;5.20;97.30;;;;;;5058658;28;20408;-65
2022/10/12 05:23:39;;;;;;;15.30;3.45;;;5.20;97.40;;;;;;5060243;28;20040;-65
2022/10/12 05:26:05;;;;;;;10.98;3.85;;;5.20;97.30;;;;;;5064852;28;20433;-66
2022/10/12 05:28:30;;;;;;;24.55;4.32;;;5.20;97.40;;;;;;5065450;28;20183;-66
2022/10/12 05:30:55;;;;;;;13.13;3.78;;;5.10;97.40;;;;;;5068795;28;20033;-68
2022/10/12 05:33:21;;;;;;;15.35;4.53;;;5.10;97.40;;;;;;5064914;28;20325;-66
2022/10/12 05:35:47;;;;;;;14.77;3.83;;;5.10;97.50;;;;;;5057788;28;20116;-67
2022/10/12 05:38:13;;;;;;;14.52;3.88;;;5.20;97.50;;;;;;5066748;28;20068;-67
2022/10/12 05:40:38;;;;;;;12.73;3.80;;;5.10;97.50;;;;;;5063655;28;20060;-68
2022/10/12 05:43:04;;;;;;;14.90;3.63;;;5.10;97.40;;;;;;5058854;28;20508;-68
2022/10/12 05:45:29;;;;;;;10.23;3.35;;;5.10;97.60;;;;;;5062026;28;20068;-67
2022/10/12 05:47:55;;;;;;;16.20;4.03;;;5.10;97.40;;;;;;5054120;28;20029;-68
2022/10/12 05:50:20;;;;;;;19.95;3.67;;;5.10;97.60;;;;;;5063862;28;20039;-68
2022/10/12 05:52:46;;;;;;;9.85;3.35;;;5.10;97.60;;;;;;5056889;28;20326;-68
2022/10/12 05:55:12;;;;;;;15.20;3.40;;;5.10;97.60;;;;;;5061142;28;20032;-69
2022/10/12 05:57:38;;;;;;;13.10;3.40;;;5.10;97.70;;;;;;5077972;28;20069;-67
2022/10/12 06:00:07;;;;;;;22.02;4.60;;;5.10;97.60;;;;;;5049575;28;20032;-68
2022/10/12 06:02:32;;;;;;;13.50;3.63;;;5.20;97.70;;;;;;5066191;28;20037;-68
2022/10/12 06:04:58;;;;;;;15.35;4.28;;;5.20;97.70;;;;;;5067732;28;20047;-67
2022/10/12 06:07:23;;;;;;;23.45;4.13;;;5.20;97.70;;;;;;5068736;28;20389;-67
2022/10/12 06:09:49;;;;;;;16.40;3.83;;;5.30;97.80;;;;;;5067849;28;20062;-68
2022/10/12 06:12:15;;;;;;;13.65;3.95;;;5.30;97.80;;;;;;5058121;28;20464;-68
2022/10/12 06:14:40;;;;;;;15.38;4.50;;;5.30;97.80;;;;;;5064120;28;20043;-67
2022/10/12 06:17:07;;;;;;;17.23;4.20;;;5.30;97.80;;;;;;5066620;28;20055;-68
2022/10/12 06:19:33;;;;;;;12.27;4.18;;;5.40;97.80;;;;;;5066509;28;20142;-68
2022/10/12 06:21:58;;;;;;;9.10;3.70;;;5.40;97.80;;;;;;5064678;28;20058;-69
2022/10/12 06:24:24;;;;;;;17.73;4.20;;;5.40;97.80;;;;;;5067174;28;20123;-67
2022/10/12 06:26:49;;;;;;;13.48;4.47;;;5.40;97.90;;;;;;5058782;28;20052;-69
2022/10/12 06:29:14;;;;;;;20.92;4.72;;;5.50;97.90;;;;;;5067369;28;20364;-67
2022/10/12 06:31:40;;;;;;;12.48;3.67;;;5.60;97.90;;;;;;5065375;28;20464;-67
2022/10/12 06:34:05;;;;;;;18.67;4.75;;;5.60;97.90;;;;;;5068018;28;20105;-67
2022/10/12 06:36:31;;;;;;;16.55;4.20;;;5.60;97.90;;;;;;5068346;28;20479;-68
2022/10/12 06:38:57;;;;;;;19.48;5.07;;;5.70;97.90;;;;;;5066313;28;20028;-68
2022/10/12 06:41:22;;;;;;;12.73;4.88;;;5.80;98.10;;;;;;5056988;28;20503;-69
2022/10/12 06:43:48;;;;;;;20.10;5.13;;;6.00;98.20;;;;;;5068123;28;20043;-67
2022/10/12 06:46:13;;;;;;;17.48;4.85;;;6.00;98.10;;;;;;5063153;28;20054;-67
2022/10/12 06:48:38;;;;;;;22.08;5.78;;;6.10;98.10;;;;;;5068056;28;20032;-68
2022/10/12 06:51:04;;;;;;;18.95;5.68;;;6.20;98.20;;;;;;5067898;28;20067;-67
2022/10/12 06:53:31;;;;;;;24.85;6.30;;;6.30;98.10;;;;;;5064731;28;20031;-68
2022/10/12 06:55:57;;;;;;;18.35;5.97;;;6.30;98.10;;;;;;5064705;28;20042;-68
2022/10/12 06:58:23;;;;;;;19.25;6.60;;;6.40;98.10;;;;;;5065898;28;20037;-68
2022/10/12 07:00:49;;;;;;;23.45;6.43;;;6.50;98.20;;;;;;5067272;28;20029;-68
2022/10/12 07:03:16;;;;;;;24.95;6.53;;;6.60;98.20;;;;;;5068323;28;20106;-67
2022/10/12 07:05:41;;;;;;;21.85;6.70;;;6.70;98.20;;;;;;5060999;28;20523;-69
2022/10/12 07:08:07;;;;;;;21.98;6.40;;;6.80;98.20;;;;;;5062175;28;20044;-67
2022/10/12 07:10:32;;;;;;;22.40;6.72;;;6.90;98.10;;;;;;5055236;28;20038;-67
2022/10/12 07:12:58;;;;;;;27.52;7.03;;;7.00;98.00;;;;;;5059947;28;20025;-70
2022/10/12 07:15:23;;;;;;;27.10;7.18;;;7.00;97.90;;;;;;5072254;28;20348;-67
2022/10/12 07:17:49;;;;;;;27.33;6.85;;;7.10;98.00;;;;;;5061563;28;20037;-68
2022/10/12 07:20:14;;;;;;;21.73;7.57;;;7.10;97.80;;;;;;5067325;28;20056;-69
2022/10/12 07:22:40;;;;;;;21.98;6.68;;;7.30;97.80;;;;;;5071716;28;20081;-66
2022/10/12 07:25:06;;;;;;;28.70;6.88;;;7.40;97.50;;;;;;5069623;28;20040;-67
2022/10/12 07:27:31;;;;;;;25.83;6.53;;;7.50;97.30;;;;;;5070496;28;20381;-69
2022/10/12 07:29:57;;;;;;;21.45;6.55;;;7.70;97.00;;;;;;5063604;28;20214;-66
2022/10/12 07:32:22;;;;;;;23.92;6.88;;;7.80;96.50;;;;;;5071375;28;20405;-66
2022/10/12 07:34:48;;;;;;;18.25;6.20;;;7.90;96.10;;;;;;5070269;28;20163;-67
2022/10/12 07:37:14;;;;;;;21.73;5.88;;;8.00;95.70;;;;;;5063478;28;20029;-66
2022/10/12 07:39:40;;;;;;;20.52;6.15;;;8.10;95.60;;;;;;5071339;28;20183;-65
2022/10/12 07:42:06;;;;;;;24.60;5.53;;;8.20;95.40;;;;;;5069792;28;20117;-66
2022/10/12 07:44:32;;;;;;;17.60;4.82;;;8.40;94.80;;;;;;5060560;28;20117;-66
2022/10/12 07:46:57;;;;;;;17.08;5.00;;;8.50;94.20;;;;;;5066536;28;20021;-67
2022/10/12 07:49:23;;;;;;;20.13;4.63;;;8.70;93.40;;;;;;5067531;28;20357;-67
2022/10/12 07:51:48;;;;;;;16.42;4.38;;;8.80;93.20;;;;;;5071659;28;20433;-66
2022/10/12 07:54:14;;;;;;;16.00;3.22;;;8.80;93.40;;;;;;5065641;28;20029;-66
2022/10/12 07:56:39;;;;;;;12.80;3.55;;;9.00;92.50;;;;;;5074036;28;20039;-67
2022/10/12 07:59:05;;;;;;;10.05;2.95;;;9.10;91.90;;;;;;5057481;28;20082;-66
2022/10/12 08:01:31;;;;;;;14.35;3.63;;;9.30;92.30;;;;;;5063190;28;20130;-66
2022/10/12 08:03:58;;;;;;;15.82;3.00;;;9.50;92.10;;;;;;5062107;28;20033;-66
2022/10/12 08:06:27;;;;;;;12.77;2.67;;;9.60;90.50;;;;;;5063882;28;20067;-66
2022/10/12 08:08:53;;;;;;;11.80;2.83;;;9.70;89.60;;;;;;5062842;28;20503;-66
2022/10/12 08:11:19;;;;;;;15.73;2.85;;;9.90;88.70;;;;;;5068284;28;20021;-66
2022/10/12 08:13:45;;;;;;;9.05;2.88;;;10.10;89.70;;;;;;5052704;28;20028;-66
2022/10/12 08:16:14;;;;;;;9.98;2.53;;;10.20;88.80;;;;;;5059817;28;20369;-67
2022/10/12 08:18:39;;;;;;;10.43;2.45;;;10.30;88.60;;;;;;5079193;28;20138;-66
2022/10/12 08:21:07;;;;;;;13.73;2.38;;;10.50;88.70;;;;;;5066716;28;20124;-67
2022/10/12 08:23:34;;;;;;;18.33;2.47;;;10.70;88.20;;;;;;5062754;28;20033;-66
2022/10/12 08:26:00;;;;;;;11.70;2.35;;;10.90;87.80;;;;;;5068358;28;20028;-67
2022/10/12 08:28:26;;;;;;;10.00;2.47;;;11.10;87.00;;;;;;5069198;28;20054;-66
2022/10/12 08:30:52;;;;;;;13.82;2.30;;;11.40;86.20;;;;;;5069716;28;20040;-67
2022/10/12 08:33:18;;;;;;;8.45;2.33;;;11.60;85.80;;;;;;5070235;28;20028;-67
2022/10/12 08:35:44;;;;;;;8.75;2.08;;;11.70;85.30;;;;;;5074569;28;20071;-66
2022/10/12 08:38:11;;;;;;;12.45;2.45;;;11.80;84.40;;;;;;5071067;28;20446;-67
2022/10/12 08:40:55;;;;;;;8.68;2.10;;;12.10;85.20;;;;;;5059007;28;20036;-67
2022/10/12 08:43:28;;;;;;;15.00;2.65;;;12.00;82.80;;;;;;5069005;28;20029;-67
2022/10/12 08:45:55;;;;;;;11.40;2.17;;;11.90;81.70;;;;;;5068969;28;20036;-66
2022/10/12 08:48:26;;;;;;;14.88;2.08;;;12.00;81.70;;;;;;5065527;28;20033;-66
2022/10/12 08:51:01;;;;;;;6.45;1.73;;;12.10;81.60;;;;;;5068727;28;20068;-67
2022/10/12 08:53:33;;;;;;;10.90;2.10;;;12.30;82.90;;;;;;5062457;28;20032;-67
2022/10/12 08:56:00;;;;;;;20.73;3.10;;;12.50;80.90;;;;;;5057686;28;20465;-67
2022/10/12 08:58:31;;;;;;;9.98;2.15;;;12.50;79.50;;;;;;5079245;28;20020;-68
2022/10/12 09:01:04;;;;;;;9.93;1.83;;;12.60;80.40;;;;;;5065312;28;20032;-65
2022/10/12 09:03:46;;;;;;;11.00;2.15;;;12.80;80.70;;;;;;5067631;28;20094;-65
2022/10/12 09:06:21;;;;;;;9.70;2.08;;;12.70;77.80;;;;;;5069935;28;20362;-66
2022/10/12 09:08:55;;;;;;;8.50;2.00;;;12.80;79.00;;;;;;5062952;28;20040;-67
2022/10/12 09:11:32;;;;;;;8.88;1.67;;;12.90;78.50;;;;;;5067212;28;20032;-67
2022/10/12 09:14:18;;;;;;;12.90;1.65;;;13.00;77.50;;;;;;5068530;28;20021;-68
2022/10/12 09:16:47;;;;;;;9.57;1.98;;;13.10;76.40;;;;;;5064771;28;20020;-66
2022/10/12 09:19:34;;;;;;;12.75;2.53;;;13.30;76.40;;;;;;5064322;28;20084;-66
2022/10/12 09:22:01;;;;;;;12.75;1.80;;;13.40;76.10;;;;;;5074446;28;20115;-67
2022/10/12 09:24:33;;;;;;;11.40;1.88;;;13.50;75.40;;;;;;5075636;28;20106;-67
2022/10/12 09:26:59;;;;;;;14.75;2.03;;;13.60;75.50;;;;;;5060397;28;20039;-67
2022/10/12 09:29:27;;;;;;;7.63;1.67;;;13.70;74.20;;;;;;5066413;28;20031;-67
2022/10/12 09:32:20;;;;;;;7.35;1.60;;;13.70;73.20;;;;;;5060763;28;20336;-67
2022/10/12 09:34:47;;;;;;;6.75;1.33;;;13.60;71.60;;;;;;5069238;28;20040;-67
2022/10/12 09:37:26;;;;;;;11.13;1.85;;;14.00;73.30;;;;;;5069065;28;20112;-68
2022/10/12 09:39:52;;;;;;;8.75;1.67;;;14.20;72.90;;;;;;5066227;28;20033;-67
2022/10/12 09:42:17;;;;;;;6.80;1.40;;;14.20;72.40;;;;;;5058556;28;20024;-68
2022/10/12 09:44:47;;;;;;;10.07;1.98;;;14.40;72.50;;;;;;5064905;28;20045;-66
2022/10/12 09:47:28;;;;;;;6.95;1.92;;;14.60;70.90;;;;;;5068689;28;20040;-66
2022/10/12 09:49:57;;;;;;;7.35;1.75;;;14.60;68.70;;;;;;5069267;28;20465;-66
2022/10/12 09:52:28;;;;;;;10.13;1.48;;;14.60;68.40;;;;;;5066617;28;20112;-67
2022/10/12 09:54:58;;;;;;;10.50;1.77;;;14.90;69.20;;;;;;5064575;28;20044;-66
2022/10/12 09:57:32;;;;;;;12.23;1.73;;;14.90;67.90;;;;;;5063551;28;20220;-66
2022/10/12 10:00:01;;;;;;;7.35;1.80;;;14.80;66.20;;;;;;5063679;28;20024;-67
2022/10/12 10:02:27;;;;;;;7.80;1.27;;;14.90;68.00;;;;;;5061636;28;20512;-66
2022/10/12 10:04:53;;;;;;;7.88;1.70;;;15.10;66.50;;;;;;5064829;28;20041;-67
2022/10/12 10:07:21;;;;;;;8.73;1.70;;;15.00;65.60;;;;;;5068836;28;20024;-67
2022/10/12 10:10:01;;;;;;;5.10;1.15;;;15.20;68.40;;;;;;5058924;28;20131;-67
2022/10/12 10:12:27;;;;;;;6.18;1.23;;;15.10;65.60;;;;;;5066747;28;20447;-67
2022/10/12 10:14:57;;;;;;;8.02;1.63;;;15.10;66.10;;;;;;5076757;28;20339;-67
2022/10/12 10:17:30;;;;;;;9.67;1.80;;;15.00;65.30;;;;;;5068826;28;20072;-67
2022/10/12 10:19:57;;;;;;;10.45;1.58;;;15.50;67.50;;;;;;5065166;28;20452;-67
2022/10/12 10:22:24;;;;;;;6.28;1.23;;;15.60;66.70;;;;;;5065462;28;20052;-66
2022/10/12 10:24:51;;;;;;;10.52;1.67;;;15.80;66.10;;;;;;5063350;28;20417;-67
2022/10/12 10:27:31;;;;;;;12.90;1.90;;;15.90;65.70;;;;;;5066268;28;20089;-67
2022/10/12 10:30:14;;;;;;;9.32;1.88;;;15.80;64.10;;;;;;5066825;28;20067;-67
2022/10/12 10:32:40;;;;;;;6.20;1.48;;;15.60;62.70;;;;;;5062695;28;20040;-67
2022/10/12 10:35:12;;;;;;;11.57;1.48;;;15.70;63.40;;;;;;5062698;28;20130;-67
2022/10/12 10:37:51;;;;;;;13.45;1.85;;;15.70;62.90;;;;;;5062719;28;20025;-67
2022/10/12 10:40:24;;;;;;;7.85;1.60;;;15.60;63.00;;;;;;5061294;28;20028;-68
2022/10/12 10:42:52;;;;;;;12.80;1.67;;;15.80;62.10;;;;;;5067419;28;20039;-68
2022/10/12 10:45:27;;;;;;;8.98;1.50;;;15.80;62.30;;;;;;5067323;28;20054;-68
2022/10/12 10:48:00;;;;;;;6.85;1.45;;;15.70;61.90;;;;;;5066798;28;20051;-68
2022/10/12 10:50:31;;;;;;;10.10;1.80;;;15.60;61.10;;;;;;5065346;28;20063;-68
2022/10/12 10:53:00;;;;;;;6.40;1.35;;;16.00;62.40;;;;;;5067517;28;20033;-67
2022/10/12 10:55:41;;;;;;;7.72;1.85;;;16.20;60.90;;;;;;5065102;28;20156;-68
2022/10/12 10:58:29;;;;;;;9.70;1.55;;;16.50;59.90;;;;;;5071094;28;20051;-67
2022/10/12 11:00:59;;;;;;;5.03;1.02;;;16.30;59.40;;;;;;5068658;28;20029;-69
2022/10/12 11:03:39;;;;;;;7.23;1.37;;;16.30;59.50;;;;;;5061827;28;20032;-68
2022/10/12 11:06:30;;;;;;;4.72;1.20;;;16.40;60.20;;;;;;5071687;28;20360;-68
2022/10/12 11:09:05;;;;;;;5.22;1.27;;;16.30;58.40;;;;;;5070567;28;20106;-68
2022/10/12 11:11:35;;;;;;;7.95;1.60;;;16.50;58.90;;;;;;5069604;28;20061;-70
2022/10/12 11:14:10;;;;;;;10.07;1.33;;;16.10;57.40;;;;;;5059001;28;20349;-68
2022/10/12 11:16:53;;;;;;;4.90;1.30;;;16.60;58.50;;;;;;5069361;28;20076;-68
2022/10/12 11:19:36;;;;;;;7.43;1.50;;;16.90;58.30;;;;;;5062738;28;20025;-71
2022/10/12 11:22:22;;;;;;;7.82;1.58;;;17.00;57.50;;;;;;5055009;28;20039;-70
2022/10/12 11:24:59;;;;;;;8.18;1.75;;;17.00;57.30;;;;;;5066976;28;20215;-69
2022/10/12 11:27:36;;;;;;;8.05;1.80;;;17.20;56.50;;;;;;5064309;28;20040;-69
2022/10/12 11:30:11;;;;;;;6.32;1.52;;;17.20;57.00;;;;;;5069450;28;20067;-70
2022/10/12 11:32:41;;;;;;;6.88;1.23;;;17.40;56.90;;;;;;5061933;28;20094;-69
2022/10/12 11:35:15;;;;;;;8.15;1.40;;;17.30;55.30;;;;;;5070048;28;20444;-69
2022/10/12 11:37:56;;;;;;;6.75;1.20;;;17.40;56.40;;;;;;5066406;28;20076;-68
2022/10/12 11:40:35;;;;;;;4.95;1.30;;;17.10;55.40;;;;;;5061597;28;20033;-68
2022/10/12 11:43:06;;;;;;;6.93;1.70;;;17.10;56.10;;;;;;5067535;28;20104;-68
2022/10/12 11:45:42;;;;;;;8.65;1.55;;;17.60;56.70;;;;;;5065401;28;20072;-69
2022/10/12 11:48:15;;;;;;;6.22;1.83;;;18.30;56.00;;;;;;5066812;28;20151;-68
2022/10/12 11:50:45;;;;;;;5.72;1.33;;;18.50;54.50;;;;;;5068595;28;20327;-68
2022/10/12 11:53:39;;;;;;;7.50;1.85;;;18.50;52.50;;;;;;5068708;28;20044;-66
2022/10/12 11:56:23;;;;;;;10.55;1.50;;;18.20;52.70;;;;;;5064084;28;20491;-72
2022/10/12 11:58:53;;;;;;;7.45;1.58;;;18.60;53.30;;;;;;5065057;28;20111;-70
2022/10/12 12:01:37;;;;;;;8.73;1.63;;;18.90;50.00;;;;;;5062536;28;20314;-70
2022/10/12 12:04:16;;;;;;;7.75;1.70;;;18.50;51.50;;;;;;5062430;28;20084;-67
2022/10/12 12:07:13;;;;;;;7.07;1.80;;;19.00;52.20;;;;;;5060515;28;20408;-69
2022/10/12 12:09:42;;;;;;;7.00;1.90;;;19.30;49.70;;;;;;5043761;28;20051;-67
2022/10/12 12:12:16;;;;;;;7.22;1.58;;;19.40;50.10;;;;;;5068114;28;20040;-68
2022/10/12 12:14:54;;;;;;;6.97;1.42;;;19.00;50.40;;;;;;5070791;28;20119;-68
2022/10/12 12:17:19;;;;;;;9.93;1.65;;;19.00;51.40;;;;;;5066157;28;20032;-67
2022/10/12 12:19:50;;;;;;;6.18;1.48;;;19.10;51.60;;;;;;5060544;28;20028;-67
2022/10/12 12:22:18;;;;;;;8.13;1.45;;;19.10;51.20;;;;;;5070541;28;20418;-70
2022/10/12 12:24:58;;;;;;;6.55;1.40;;;19.40;49.10;;;;;;5064808;28;20048;-68
2022/10/12 12:27:39;;;;;;;7.63;1.60;;;19.10;50.10;;;;;;5056335;28;20024;-70
2022/10/12 12:30:24;;;;;;;9.95;1.70;;;19.30;50.80;;;;;;5062587;28;20047;-70
2022/10/12 12:32:58;;;;;;;6.45;1.75;;;19.30;50.50;;;;;;5064582;28;20093;-68
2022/10/12 12:35:50;;;;;;;7.38;1.40;;;19.30;47.90;;;;;;5060904;28;20441;-71
2022/10/12 12:38:23;;;;;;;9.18;1.60;;;19.30;49.80;;;;;;5056772;28;20041;-67
2022/10/12 12:41:05;;;;;;;7.80;1.70;;;19.00;50.50;;;;;;5064793;28;20349;-69
2022/10/12 12:43:30;;;;;;;6.40;1.42;;;18.80;49.80;;;;;;5064829;28;20047;-69
2022/10/12 12:46:03;;;;;;;6.40;1.40;;;19.30;50.20;;;;;;5070004;28;20044;-69
2022/10/12 12:48:37;;;;;;;5.32;1.27;;;19.50;49.80;;;;;;5063521;28;20043;-69
2022/10/12 12:51:11;;;;;;;4.72;1.42;;;19.90;49.90;;;;;;5057758;28;20048;-69
2022/10/12 12:53:41;;;;;;;8.93;1.70;;;20.50;48.80;;;;;;5068566;28;20029;-69
2022/10/12 12:56:22;;;;;;;4.60;1.13;;;20.80;46.80;;;;;;5081402;28;20460;-69
2022/10/12 12:59:41;;;;;;;7.90;1.40;;;20.20;47.90;;;;;;5065414;28;20423;-69
2022/10/12 13:02:22;;;;;;;8.25;2.15;;;20.40;46.00;;;;;;5063073;28;20123;-68